createdAt,value
2022-08-23T00:01:43.572Z,25.25
2022-08-23T00:04:19.634Z,25.25
2022-08-23T00:06:49.713Z,25.25
2022-08-23T00:09:19.763Z,25.25
2022-08-23T00:12:21.364Z,25.22
2022-08-23T00:14:52.233Z,25.23
2022-08-23T00:17:31.140Z,25.23
2022-08-23T00:20:07.905Z,25.22
2022-08-23T00:22:36.517Z,25.22
2022-08-23T00:25:09.786Z,25.22
2022-08-23T00:27:38.378Z,25.23
2022-08-23T00:30:08.679Z,25.21
2022-08-23T00:32:38.106Z,25.21
2022-08-23T00:35:07.844Z,25.21
2022-08-23T00:37:36.237Z,25.21
2022-08-23T00:40:08.166Z,25.20
2022-08-23T00:43:15.546Z,25.18
2022-08-23T00:46:18.625Z,25.17
2022-08-23T00:48:47.088Z,25.20
2022-08-23T00:51:28.511Z,25.20
2022-08-23T00:54:01.366Z,25.20
2022-08-23T00:56:33.535Z,25.19
2022-08-23T00:59:01.080Z,25.19
2022-08-23T01:01:28.789Z,25.18
2022-08-23T01:04:00.819Z,25.18
2022-08-23T01:06:44.092Z,25.20
2022-08-23T01:09:16.343Z,25.18
2022-08-23T01:12:15.095Z,25.17
2022-08-23T01:15:00.857Z,25.18
2022-08-23T01:17:53.513Z,25.17
2022-08-23T01:20:26.945Z,25.18
2022-08-23T01:23:08.756Z,25.18
2022-08-23T01:25:37.252Z,25.17
2022-08-23T01:28:05.145Z,25.17
2022-08-23T01:30:34.518Z,25.17
2022-08-23T01:33:05.811Z,25.17
2022-08-23T01:35:39.256Z,25.16
2022-08-23T01:38:08.773Z,25.16
2022-08-23T01:40:36.986Z,25.15
2022-08-23T01:43:05.319Z,25.15
2022-08-23T01:45:34.222Z,25.17
2022-08-23T01:48:02.822Z,25.15
2022-08-23T01:50:31.492Z,25.15
2022-08-23T01:52:59.916Z,25.15
2022-08-23T01:55:27.778Z,25.16
2022-08-23T01:57:59.936Z,25.15
2022-08-23T02:00:32.792Z,25.16
2022-08-23T02:03:00.862Z,25.15
2022-08-23T02:05:29.204Z,25.15
2022-08-23T02:07:57.158Z,25.14
2022-08-23T02:10:24.680Z,25.14
2022-08-23T02:12:52.320Z,25.14
2022-08-23T02:15:21.328Z,25.13
2022-08-23T02:17:48.883Z,25.13
2022-08-23T02:20:17.240Z,25.13
2022-08-23T02:22:44.751Z,25.13
2022-08-23T02:25:12.346Z,25.13
2022-08-23T02:27:43.934Z,25.13
2022-08-23T02:30:12.305Z,25.12
2022-08-23T02:32:42.245Z,25.11
2022-08-23T02:35:09.857Z,25.12
2022-08-23T02:37:37.362Z,25.12
2022-08-23T02:40:06.698Z,25.11
2022-08-23T02:42:34.208Z,25.11
2022-08-23T02:45:01.720Z,25.11
2022-08-23T02:47:29.890Z,25.11
2022-08-23T02:49:57.295Z,25.11
2022-08-23T02:52:25.328Z,25.11
2022-08-23T02:54:53.294Z,25.11
2022-08-23T02:57:27.104Z,25.11
2022-08-23T02:59:58.084Z,25.10
2022-08-23T03:02:25.651Z,25.10
2022-08-23T03:04:53.092Z,25.10
2022-08-23T03:07:20.749Z,25.10
2022-08-23T03:09:48.172Z,25.10
2022-08-23T03:12:15.658Z,25.10
2022-08-23T03:14:43.350Z,25.10
2022-08-23T03:17:11.177Z,25.10
2022-08-23T03:19:38.612Z,25.10
2022-08-23T03:22:06.274Z,25.10
2022-08-23T03:24:33.707Z,25.11
2022-08-23T03:27:01.164Z,25.09
2022-08-23T03:29:29.076Z,25.09
2022-08-23T03:31:56.476Z,25.09
2022-08-23T03:34:25.747Z,25.09
2022-08-23T03:36:53.350Z,25.09
2022-08-23T03:39:20.813Z,25.09
2022-08-23T03:41:48.280Z,25.10
2022-08-23T03:44:16.105Z,25.09
2022-08-23T03:46:43.573Z,25.09
2022-08-23T03:49:11.090Z,25.09
2022-08-23T03:51:38.778Z,25.08
2022-08-23T03:54:06.689Z,25.08
2022-08-23T03:56:40.045Z,25.07
2022-08-23T03:59:11.564Z,25.07
2022-08-23T04:01:39.003Z,25.08
2022-08-23T04:04:06.565Z,25.07
2022-08-23T04:06:34.197Z,25.07
2022-08-23T04:09:01.880Z,25.08
2022-08-23T04:11:29.567Z,25.06
2022-08-23T04:13:57.548Z,25.07
2022-08-23T04:16:25.000Z,25.07
2022-08-23T04:18:52.469Z,25.07
2022-08-23T04:21:23.343Z,25.07
2022-08-23T04:23:50.870Z,25.06
2022-08-23T04:26:18.347Z,25.05
2022-08-23T04:28:46.035Z,25.05
2022-08-23T04:31:13.989Z,25.06
2022-08-23T04:33:42.954Z,25.05
2022-08-23T04:36:10.717Z,25.05
2022-08-23T04:38:38.253Z,25.05
2022-08-23T04:41:24.538Z,25.08
2022-08-23T04:43:52.363Z,25.08
2022-08-23T04:46:19.862Z,25.08
2022-08-23T04:48:47.840Z,25.09
2022-08-23T04:51:16.239Z,25.11
2022-08-23T04:53:44.038Z,25.14
2022-08-23T04:56:11.959Z,25.15
2022-08-23T04:58:39.921Z,25.15
2022-08-23T05:01:09.538Z,25.15
2022-08-23T05:03:38.274Z,25.15
2022-08-23T05:06:06.233Z,25.16
2022-08-23T05:08:34.065Z,25.16
2022-08-23T05:11:04.645Z,25.17
2022-08-23T05:13:34.907Z,25.17
2022-08-23T05:16:03.010Z,25.18
2022-08-23T05:18:30.693Z,25.18
2022-08-23T05:20:58.400Z,25.20
2022-08-23T05:23:31.650Z,25.19
2022-08-23T05:26:00.982Z,25.20
2022-08-23T05:28:34.835Z,25.21
2022-08-23T05:31:03.362Z,25.21
2022-08-23T05:33:33.785Z,25.22
2022-08-23T05:36:03.523Z,25.22
2022-08-23T05:38:32.033Z,25.20
2022-08-23T05:41:02.080Z,25.21
2022-08-23T05:43:33.732Z,25.22
2022-08-23T05:46:19.820Z,25.22
2022-08-23T05:48:50.985Z,25.23
2022-08-23T05:51:22.653Z,25.24
2022-08-23T05:53:51.698Z,25.23
2022-08-23T05:56:27.862Z,25.25
2022-08-23T05:58:59.978Z,25.24
2022-08-23T06:01:30.052Z,25.25
2022-08-23T06:04:02.719Z,25.24
2022-08-23T06:06:37.068Z,25.24
2022-08-23T06:09:08.118Z,25.25
2022-08-23T06:11:36.449Z,25.25
2022-08-23T06:14:07.466Z,25.27
2022-08-23T06:16:47.587Z,25.27
2022-08-23T06:19:15.633Z,25.28
2022-08-23T06:21:43.360Z,25.28
2022-08-23T06:24:12.320Z,25.29
2022-08-23T06:26:43.165Z,25.29
2022-08-23T06:29:15.362Z,25.30
2022-08-23T06:31:45.483Z,25.30
2022-08-23T06:34:26.185Z,25.29
2022-08-23T06:36:56.738Z,25.32
2022-08-23T06:39:26.883Z,25.32
2022-08-23T06:42:00.596Z,25.32
2022-08-23T06:44:29.482Z,25.34
2022-08-23T06:46:57.524Z,25.34
2022-08-23T06:49:25.746Z,25.33
2022-08-23T06:51:56.432Z,25.34
2022-08-23T06:54:26.921Z,25.34
2022-08-23T06:56:55.525Z,25.35
2022-08-23T06:59:23.169Z,25.34
2022-08-23T07:02:00.098Z,25.35
2022-08-23T07:04:39.741Z,25.35
2022-08-23T07:07:11.639Z,25.36
2022-08-23T07:09:40.759Z,25.36
2022-08-23T07:12:09.003Z,25.35
2022-08-23T07:14:36.897Z,25.36
2022-08-23T07:17:05.444Z,25.37
2022-08-23T07:19:34.917Z,25.36
2022-08-23T07:22:05.258Z,25.36
2022-08-23T07:24:33.940Z,25.36
2022-08-23T07:27:06.920Z,25.38
2022-08-23T07:29:37.581Z,25.37
2022-08-23T07:32:05.832Z,25.37
2022-08-23T07:34:34.535Z,25.38
2022-08-23T07:37:04.346Z,25.37
2022-08-23T07:39:38.567Z,25.37
2022-08-23T07:42:23.876Z,25.37
2022-08-23T07:44:53.289Z,25.38
2022-08-23T07:47:22.081Z,25.39
2022-08-23T07:49:49.567Z,25.39
2022-08-23T07:52:17.093Z,25.38
2022-08-23T07:54:48.626Z,25.39
2022-08-23T07:57:17.812Z,25.39
2022-08-23T07:59:46.012Z,25.39
2022-08-23T08:02:13.593Z,25.40
2022-08-23T08:04:42.188Z,25.41
2022-08-23T08:07:19.259Z,25.41
2022-08-23T08:09:48.901Z,25.42
2022-08-23T08:12:17.703Z,25.42
2022-08-23T08:14:48.223Z,25.42
2022-08-23T08:17:18.210Z,25.43
2022-08-23T08:19:46.016Z,25.43
2022-08-23T08:22:13.520Z,25.42
2022-08-23T08:24:41.133Z,25.42
2022-08-23T08:27:08.926Z,25.43
2022-08-23T08:29:36.754Z,25.42
2022-08-23T08:32:04.229Z,25.44
2022-08-23T08:34:32.329Z,25.43
2022-08-23T08:37:00.060Z,25.43
2022-08-23T08:39:33.735Z,25.45
2022-08-23T08:42:34.066Z,25.45
2022-08-23T08:45:10.203Z,25.47
2022-08-23T08:47:49.014Z,25.47
2022-08-23T08:50:28.525Z,25.47
2022-08-23T08:53:24.639Z,25.48
2022-08-23T08:56:00.752Z,25.49
2022-08-23T08:58:45.550Z,25.50
2022-08-23T09:01:15.488Z,25.52
2022-08-23T09:03:43.700Z,25.52
2022-08-23T09:06:42.072Z,25.53
2022-08-23T09:09:34.140Z,25.55
2022-08-23T09:12:24.858Z,25.56
2022-08-23T09:14:56.209Z,25.57
2022-08-23T09:17:44.158Z,25.58
2022-08-23T09:20:15.556Z,25.58
2022-08-23T09:22:47.146Z,25.59
2022-08-23T09:25:16.914Z,25.59
2022-08-23T09:27:45.668Z,25.57
2022-08-23T09:30:16.536Z,25.59
2022-08-23T09:32:47.033Z,25.58
2022-08-23T09:35:15.109Z,25.58
2022-08-23T09:38:03.353Z,25.58
2022-08-23T09:40:34.536Z,25.59
2022-08-23T09:43:16.104Z,25.59
2022-08-23T09:45:49.540Z,25.59
2022-08-23T09:48:39.467Z,25.59
2022-08-23T09:51:18.719Z,25.60
2022-08-23T09:53:50.186Z,25.60
2022-08-23T09:56:26.954Z,25.60
2022-08-23T09:58:54.501Z,25.60
2022-08-23T10:01:28.595Z,25.61
2022-08-23T10:04:24.511Z,25.60
2022-08-23T10:06:52.882Z,25.61
2022-08-23T10:09:23.358Z,25.62
2022-08-23T10:11:51.187Z,25.62
2022-08-23T10:14:23.438Z,25.64
2022-08-23T10:17:37.526Z,25.64
2022-08-23T10:20:11.570Z,25.64
2022-08-23T10:23:05.045Z,25.64
2022-08-23T10:25:42.084Z,25.64
2022-08-23T10:28:40.115Z,25.66
2022-08-23T10:31:18.706Z,25.66
2022-08-23T10:34:00.029Z,25.66
2022-08-23T10:36:58.806Z,25.66
2022-08-23T10:39:29.212Z,25.66
2022-08-23T10:42:11.589Z,25.67
2022-08-23T10:44:45.139Z,25.68
2022-08-23T10:47:28.120Z,25.68
2022-08-23T10:50:00.326Z,25.72
2022-08-23T10:52:40.795Z,25.75
2022-08-23T10:55:24.569Z,25.76
2022-08-23T10:57:53.807Z,25.76
2022-08-23T11:00:29.248Z,25.75
2022-08-23T11:03:11.414Z,25.76
2022-08-23T11:05:40.686Z,25.76
2022-08-23T11:08:12.510Z,25.75
2022-08-23T11:10:39.966Z,25.75
2022-08-23T11:13:13.344Z,25.76
2022-08-23T11:15:45.052Z,25.76
2022-08-23T11:18:45.992Z,25.76
2022-08-23T11:21:25.749Z,25.77
2022-08-23T11:23:55.387Z,25.78
2022-08-23T11:26:22.970Z,25.77
2022-08-23T11:28:54.962Z,25.78
2022-08-23T11:31:55.270Z,25.79
2022-08-23T11:34:40.826Z,25.79
2022-08-23T11:37:20.690Z,25.78
2022-08-23T11:40:00.464Z,25.81
2022-08-23T11:42:40.377Z,25.83
2022-08-23T11:45:40.635Z,25.82
2022-08-23T11:48:49.785Z,25.82
2022-08-23T11:51:50.243Z,25.83
2022-08-23T11:54:24.120Z,25.84
2022-08-23T11:57:34.948Z,25.84
2022-08-23T12:00:20.986Z,25.83
2022-08-23T12:03:06.118Z,25.85
2022-08-23T12:05:33.835Z,25.86
2022-08-23T12:08:02.290Z,25.88
2022-08-23T12:10:42.244Z,25.89
2022-08-23T12:13:27.922Z,25.92
2022-08-23T12:16:22.675Z,25.93
2022-08-23T12:18:50.358Z,25.95
2022-08-23T12:21:21.169Z,25.97
2022-08-23T12:23:53.114Z,25.98
2022-08-23T12:26:43.430Z,26.00
2022-08-23T12:29:39.571Z,26.02
2022-08-23T12:32:41.209Z,26.04
2022-08-23T12:35:27.364Z,26.06
2022-08-23T12:38:21.124Z,26.09
2022-08-23T12:40:51.580Z,26.11
2022-08-23T12:43:26.093Z,26.09
2022-08-23T12:45:58.316Z,26.09
2022-08-23T12:48:29.355Z,26.10
2022-08-23T12:51:10.569Z,26.13
2022-08-23T12:53:45.289Z,26.14
2022-08-23T12:56:31.777Z,26.16
2022-08-23T12:59:05.262Z,26.16
2022-08-23T13:01:37.469Z,26.17
2022-08-23T13:04:14.309Z,26.19
2022-08-23T13:06:55.373Z,26.19
2022-08-23T13:09:33.839Z,26.19
2022-08-23T13:12:02.412Z,26.21
2022-08-23T13:14:51.556Z,26.23
2022-08-23T13:17:26.992Z,26.23
2022-08-23T13:20:06.644Z,26.25
2022-08-23T13:22:36.401Z,26.26
2022-08-23T13:25:28.146Z,26.30
2022-08-23T13:27:55.875Z,26.30
2022-08-23T13:30:36.586Z,26.32
2022-08-23T13:33:04.253Z,26.33
2022-08-23T13:35:39.608Z,26.34
2022-08-23T13:38:21.000Z,26.37
2022-08-23T13:41:10.435Z,26.37
2022-08-23T13:43:43.821Z,26.37
2022-08-23T13:46:19.359Z,26.37
2022-08-23T13:48:51.794Z,26.38
2022-08-23T13:51:24.055Z,26.40
2022-08-23T13:53:52.641Z,26.40
2022-08-23T13:56:21.286Z,26.41
2022-08-23T13:59:18.978Z,26.42
2022-08-23T14:01:46.621Z,26.44
2022-08-23T14:04:14.174Z,26.46
2022-08-23T14:06:41.717Z,26.44
2022-08-23T14:09:09.555Z,26.45
2022-08-23T14:11:37.858Z,26.47
2022-08-23T14:14:05.618Z,26.48
2022-08-23T14:16:39.877Z,26.48
2022-08-23T14:19:54.606Z,26.51
2022-08-23T14:21:59.536Z,26.52
2022-08-23T14:24:27.743Z,26.52
2022-08-23T14:26:57.065Z,26.53
2022-08-23T14:29:28.004Z,26.50
2022-08-23T14:31:57.874Z,26.51
2022-08-23T14:34:28.957Z,26.48
2022-08-23T14:39:45.306Z,26.52
2022-08-23T14:42:19.886Z,26.53
2022-08-23T14:44:48.143Z,26.55
2022-08-23T14:47:15.850Z,26.55
2022-08-23T14:49:43.516Z,26.55
2022-08-23T14:52:13.847Z,26.54
2022-08-23T14:54:41.593Z,26.56
2022-08-23T14:57:09.646Z,26.55
2022-08-23T14:59:37.371Z,26.55
2022-08-23T15:02:08.198Z,26.53
2022-08-23T15:04:36.138Z,26.53
2022-08-23T15:07:20.463Z,26.52
2022-08-23T15:09:55.656Z,26.53
2022-08-23T15:15:20.890Z,26.51
2022-08-23T15:17:59.669Z,26.53
2022-08-23T15:20:32.907Z,26.54
2022-08-23T15:23:00.749Z,26.54
2022-08-23T15:25:30.187Z,26.54
2022-08-23T15:27:57.746Z,26.53
2022-08-23T15:30:25.632Z,26.52
2022-08-23T15:32:56.591Z,26.51
2022-08-23T15:35:26.458Z,26.49
2022-08-23T15:37:57.195Z,26.50
2022-08-23T15:40:26.118Z,26.48
2022-08-23T15:42:54.260Z,26.48
2022-08-23T15:45:22.471Z,26.48
2022-08-23T15:47:55.481Z,26.48
2022-08-23T15:50:27.115Z,26.48
2022-08-23T15:52:55.019Z,26.48
2022-08-23T15:55:23.200Z,26.48
2022-08-23T15:57:52.827Z,26.48
2022-08-23T16:00:22.624Z,26.48
2022-08-23T16:03:18.763Z,26.48
2022-08-23T16:05:39.974Z,26.47
2022-08-23T16:08:11.942Z,26.46
2022-08-23T16:10:40.726Z,26.46
2022-08-23T16:13:08.174Z,26.45
2022-08-23T16:15:35.806Z,26.45
2022-08-23T16:18:03.643Z,26.45
2022-08-23T16:20:31.155Z,26.45
2022-08-23T16:22:58.703Z,26.45
2022-08-23T16:25:26.682Z,26.46
2022-08-23T16:27:54.102Z,26.45
2022-08-23T16:30:22.002Z,26.44
2022-08-23T16:32:49.669Z,26.44
2022-08-23T16:35:18.455Z,26.43
2022-08-23T16:37:45.853Z,26.43
2022-08-23T16:40:16.210Z,26.43
2022-08-23T16:42:44.136Z,26.44
2022-08-23T16:45:12.213Z,26.43
2022-08-23T16:47:43.441Z,26.43
2022-08-23T16:50:15.616Z,26.42
2022-08-23T16:52:43.371Z,26.42
2022-08-23T16:55:12.622Z,26.42
2022-08-23T16:57:41.775Z,26.42
2022-08-23T17:00:13.011Z,26.42
2022-08-23T17:02:41.446Z,26.42
2022-08-23T17:05:11.903Z,26.42
2022-08-23T17:07:39.677Z,26.43
2022-08-23T17:10:09.542Z,26.42
2022-08-23T17:12:38.831Z,26.42
2022-08-23T17:15:07.453Z,26.42
2022-08-23T17:17:35.645Z,26.42
2022-08-23T17:20:06.698Z,26.41
2022-08-23T17:22:34.968Z,26.41
2022-08-23T17:25:04.622Z,26.42
2022-08-23T17:27:32.531Z,26.40
2022-08-23T17:30:00.225Z,26.40
2022-08-23T17:32:28.333Z,26.40
2022-08-23T17:34:55.779Z,26.39
2022-08-23T17:37:23.794Z,26.38
2022-08-23T17:39:53.241Z,26.37
2022-08-23T17:42:21.537Z,26.36
2022-08-23T17:44:49.250Z,26.36
2022-08-23T17:47:18.928Z,26.35
2022-08-23T17:49:47.949Z,26.35
2022-08-23T17:52:17.599Z,26.34
2022-08-23T17:54:45.147Z,26.33
2022-08-23T17:57:15.149Z,26.32
2022-08-23T17:59:44.162Z,26.32
2022-08-23T18:02:12.694Z,26.31
2022-08-23T18:04:42.022Z,26.31
2022-08-23T18:07:09.728Z,26.30
2022-08-23T18:09:43.812Z,26.29
2022-08-23T18:12:16.801Z,26.30
2022-08-23T18:14:44.330Z,26.27
2022-08-23T18:17:11.915Z,26.27
2022-08-23T18:19:39.665Z,26.27
2022-08-23T18:22:07.280Z,26.27
2022-08-23T18:24:36.532Z,26.26
2022-08-23T18:27:24.472Z,26.26
2022-08-23T18:29:52.171Z,26.26
2022-08-23T18:32:20.572Z,26.26
2022-08-23T18:34:48.206Z,26.25
2022-08-23T18:37:21.979Z,26.26
2022-08-23T18:39:49.900Z,26.26
2022-08-23T18:42:17.959Z,26.26
2022-08-23T18:44:45.889Z,26.26
2022-08-23T18:47:13.627Z,26.26
2022-08-23T18:49:41.589Z,26.26
2022-08-23T18:52:09.316Z,26.25
2022-08-23T18:54:37.731Z,26.26
2022-08-23T18:57:07.500Z,26.25
2022-08-23T18:59:44.437Z,26.25
2022-08-23T19:02:12.324Z,26.25
2022-08-23T19:04:40.343Z,26.25
2022-08-23T19:07:08.349Z,26.25
2022-08-23T19:09:36.916Z,26.25
2022-08-23T19:12:06.392Z,26.26
2022-08-23T19:14:35.826Z,26.25
2022-08-23T19:17:08.178Z,26.24
2022-08-23T19:19:36.071Z,26.23
2022-08-23T19:22:04.979Z,26.23
2022-08-23T19:24:32.511Z,26.22
2022-08-23T19:27:00.276Z,26.23
2022-08-23T19:29:28.040Z,26.22
2022-08-23T19:31:55.829Z,26.23
2022-08-23T19:34:28.464Z,26.21
2022-08-23T19:37:01.077Z,26.22
2022-08-23T19:39:33.088Z,26.21
2022-08-23T19:42:00.746Z,26.20
2022-08-23T19:44:32.986Z,26.20
2022-08-23T19:47:05.508Z,26.20
2022-08-23T19:49:34.692Z,26.20
2022-08-23T19:52:03.818Z,26.20
2022-08-23T19:54:31.578Z,26.18
2022-08-23T19:57:01.108Z,26.19
2022-08-23T19:59:33.112Z,26.18
2022-08-23T20:02:02.742Z,26.17
2022-08-23T20:04:32.508Z,26.17
2022-08-23T20:07:01.994Z,26.16
2022-08-23T20:09:31.552Z,26.15
2022-08-23T20:12:01.148Z,26.16
2022-08-23T20:14:31.164Z,26.16
2022-08-23T20:17:00.403Z,26.15
2022-08-23T20:19:30.619Z,26.16
2022-08-23T20:22:16.791Z,26.14
2022-08-23T20:24:51.519Z,26.14
2022-08-23T20:27:30.194Z,26.14
2022-08-23T20:30:01.248Z,26.14
2022-08-23T20:32:29.760Z,26.14
2022-08-23T20:34:59.122Z,26.14
2022-08-23T20:37:27.387Z,26.14
2022-08-23T20:39:54.999Z,26.13
2022-08-23T20:42:23.307Z,26.13
2022-08-23T20:44:54.044Z,26.13
2022-08-23T20:47:21.557Z,26.13
2022-08-23T20:49:49.387Z,26.13
2022-08-23T20:52:18.269Z,26.13
2022-08-23T20:54:45.983Z,26.13
2022-08-23T20:57:13.902Z,26.13
2022-08-23T20:59:44.799Z,26.13
2022-08-23T21:02:12.946Z,26.12
2022-08-23T21:04:42.288Z,26.12
2022-08-23T21:07:11.406Z,26.12
2022-08-23T21:09:39.457Z,26.12
2022-08-23T21:12:07.212Z,26.12
2022-08-23T21:14:35.159Z,26.12
2022-08-23T21:17:02.717Z,26.12
2022-08-23T21:19:30.214Z,26.12
2022-08-23T21:21:58.399Z,26.11
2022-08-23T21:24:26.298Z,26.12
2022-08-23T21:26:54.631Z,26.12
2022-08-23T21:29:22.338Z,26.13
2022-08-23T21:31:51.001Z,26.12
2022-08-23T21:34:18.807Z,26.12
2022-08-23T21:36:46.501Z,26.12
2022-08-23T21:39:14.785Z,26.11
2022-08-23T21:41:45.036Z,26.11
2022-08-23T21:44:16.231Z,26.11
2022-08-23T21:46:44.073Z,26.11
2022-08-23T21:49:12.827Z,26.11
2022-08-23T21:51:42.220Z,26.11
2022-08-23T21:54:11.710Z,26.11
2022-08-23T21:56:39.277Z,26.10
2022-08-23T21:59:12.245Z,26.11
2022-08-23T22:01:40.019Z,26.11
2022-08-23T22:04:09.793Z,26.11
2022-08-23T22:06:38.729Z,26.11
2022-08-23T22:09:08.903Z,26.11
2022-08-23T22:11:40.448Z,26.10
2022-08-23T22:14:10.672Z,26.11
2022-08-23T22:16:38.248Z,26.11
2022-08-23T22:19:05.672Z,26.10
2022-08-23T22:21:35.480Z,26.11
2022-08-23T22:24:03.737Z,26.11
2022-08-23T22:26:32.474Z,26.11
2022-08-23T22:29:00.337Z,26.09
2022-08-23T22:31:28.597Z,26.09
2022-08-23T22:33:56.313Z,26.09
2022-08-23T22:36:24.692Z,26.08
2022-08-23T22:38:52.927Z,26.09
2022-08-23T22:41:27.285Z,26.09
2022-08-23T22:43:56.221Z,26.09
2022-08-23T22:46:24.530Z,26.08
2022-08-23T22:48:53.752Z,26.08
2022-08-23T22:51:27.673Z,26.09
2022-08-23T22:53:58.448Z,26.09
2022-08-23T22:56:48.088Z,26.07
2022-08-23T22:59:16.758Z,26.08
2022-08-23T23:01:51.784Z,26.08
2022-08-23T23:04:22.466Z,26.07
2022-08-23T23:06:51.382Z,26.07
2022-08-23T23:09:19.244Z,26.08
2022-08-23T23:11:47.410Z,26.08
2022-08-23T23:14:18.306Z,26.08
2022-08-23T23:16:46.300Z,26.05
2022-08-23T23:19:32.590Z,26.06
2022-08-23T23:22:01.350Z,26.05
2022-08-23T23:24:32.090Z,26.06
2022-08-23T23:27:00.806Z,26.04
2022-08-23T23:29:30.225Z,26.05
2022-08-23T23:31:58.758Z,26.05
2022-08-23T23:34:28.250Z,26.04
2022-08-23T23:36:57.566Z,26.05
2022-08-23T23:39:26.972Z,26.04
2022-08-23T23:41:54.523Z,26.04
2022-08-23T23:44:29.935Z,26.03
2022-08-23T23:47:01.475Z,26.04
2022-08-23T23:49:32.813Z,26.03
2022-08-23T23:52:03.726Z,26.03
2022-08-23T23:54:38.375Z,26.02
2022-08-23T23:57:06.640Z,26.03
2022-08-23T23:59:35.094Z,26.03
